< < Back
Terminal Aerodrome Forecast


Current Version              Previous Versions:   1  2  3  4  5  6  7  8  9  

Terminal Aerodrome Forecast

954
FTUS42 KILM 291125
TAFILM
TAF
KILM 291125Z 2912/3012 10008KT P6SM SCT030 SCT080
     FM300000 09003KT P6SM SCT020
     FM300700 VRB02KT 6SM BR BKN015=

Latest METAR

042
SAUS70 KWBC 300000 RRL
MTRILM
METAR KILM 292353Z 11007KT 10SM OVC070 25/20 A3019 RMK AO2 SLP221
T02500200 10278 20250 55005


USA.gov is the U.S. government's official web portal to all federal, state and local government web resources and services.